Terminal Aerodrome Forecast
Issued by NWS

Home | Current Version | Previous Version | Text Only | Print | Product List | Glossary On
Versions: 1 2 3 4 5 6 7 8 9 10 11 12 13 14
000
FTUS42 KMLB 022345
TAFTIX
TAF
KTIX 022345Z 0300/0324 18004KT P6SM VCTS SCT040CB BKN250
     FM030200 22003KT P6SM SCT250
     FM031300 27007KT P6SM SCT030 SCT250
     FM031900 10008KT P6SM VCTS SCT035CB SCT070
      AMD NOT SKED 0302/0312=

USA.gov is the U.S. government's official web portal to all federal, state and local government web resources and services.